createdAt,value
2023-02-27T00:00:21.248Z,100.00
2023-02-27T00:02:53.399Z,100.00
2023-02-27T00:05:23.664Z,100.00
2023-02-27T00:07:53.716Z,100.00
2023-02-27T00:10:23.768Z,100.00
2023-02-27T00:12:53.902Z,100.00
2023-02-27T00:15:24.003Z,100.00
2023-02-27T00:17:54.023Z,100.00
2023-02-27T00:20:24.439Z,100.00
2023-02-27T00:22:54.761Z,100.00
2023-02-27T00:25:24.914Z,100.00
2023-02-27T00:27:56.954Z,100.00
2023-02-27T00:30:27.710Z,100.00
2023-02-27T00:32:57.852Z,100.00
2023-02-27T00:35:28.191Z,100.00
2023-02-27T00:37:58.243Z,100.00
2023-02-27T00:40:28.473Z,100.00
2023-02-27T00:42:58.703Z,100.00
2023-02-27T00:45:27.064Z,100.00
2023-02-27T00:47:55.522Z,100.00
2023-02-27T00:50:24.198Z,100.00
2023-02-27T00:52:52.248Z,100.00
2023-02-27T00:55:20.669Z,100.00
2023-02-27T00:57:49.160Z,100.00
2023-02-27T01:00:18.323Z,100.00
2023-02-27T01:02:45.945Z,100.00
2023-02-27T01:05:15.542Z,100.00
2023-02-27T01:07:42.884Z,100.00
2023-02-27T01:10:13.131Z,100.00
2023-02-27T01:12:42.807Z,100.00
2023-02-27T01:15:12.904Z,100.00
2023-02-27T01:17:43.547Z,100.00
2023-02-27T01:20:16.411Z,100.00
2023-02-27T01:22:46.441Z,100.00
2023-02-27T01:25:16.642Z,100.00
2023-02-27T01:27:46.713Z,100.00
2023-02-27T01:30:17.250Z,100.00
2023-02-27T01:32:47.553Z,100.00
2023-02-27T01:35:18.086Z,100.00
2023-02-27T01:37:48.134Z,100.00
2023-02-27T01:40:18.533Z,100.00
2023-02-27T01:42:48.520Z,100.00
2023-02-27T01:45:43.007Z,100.00
2023-02-27T01:48:28.920Z,100.00
2023-02-27T01:51:08.824Z,100.00
2023-02-27T01:53:45.100Z,100.00
2023-02-27T01:56:22.173Z,100.00
2023-02-27T01:59:07.803Z,100.00
2023-02-27T02:01:39.175Z,100.00
2023-02-27T02:04:30.037Z,100.00
2023-02-27T02:07:19.241Z,100.00
2023-02-27T02:09:54.726Z,100.00
2023-02-27T02:12:36.102Z,100.00
2023-02-27T02:15:07.694Z,100.00
2023-02-27T02:17:51.912Z,100.00
2023-02-27T02:20:45.653Z,100.00
2023-02-27T02:24:08.548Z,100.00
2023-02-27T02:27:02.244Z,100.00
2023-02-27T02:30:18.352Z,100.00
2023-02-27T02:33:09.381Z,100.00
2023-02-27T02:36:39.788Z,100.00
2023-02-27T02:39:54.985Z,100.00
2023-02-27T02:42:53.283Z,100.00
2023-02-27T02:45:54.144Z,100.00
2023-02-27T02:48:47.608Z,100.00
2023-02-27T02:51:50.995Z,100.00
2023-02-27T02:55:13.455Z,100.00
2023-02-27T02:58:29.003Z,100.00
2023-02-27T03:01:28.498Z,100.00
2023-02-27T03:04:43.222Z,100.00
2023-02-27T03:07:38.776Z,100.00
2023-02-27T03:10:33.303Z,100.00
2023-02-27T03:13:19.303Z,100.00
2023-02-27T03:16:28.266Z,100.00
2023-02-27T03:19:34.416Z,100.00
2023-02-27T03:22:18.842Z,100.00
2023-02-27T03:24:57.391Z,100.00
2023-02-27T03:27:38.595Z,100.00
2023-02-27T03:30:38.286Z,100.00
2023-02-27T03:33:39.014Z,100.00
2023-02-27T03:36:22.994Z,100.00
2023-02-27T03:39:45.555Z,100.00
2023-02-27T03:42:40.223Z,100.00
2023-02-27T03:45:30.778Z,100.00
2023-02-27T03:48:00.442Z,100.00
2023-02-27T03:50:29.844Z,100.00
2023-02-27T03:53:00.120Z,100.00
2023-02-27T03:55:41.220Z,100.00
2023-02-27T03:58:09.573Z,100.00
2023-02-27T04:00:39.429Z,100.00
2023-02-27T04:03:09.859Z,100.00
2023-02-27T04:05:37.590Z,100.00
2023-02-27T04:08:55.458Z,100.00
2023-02-27T04:12:13.000Z,100.00
2023-02-27T04:15:01.424Z,100.00
2023-02-27T04:18:13.247Z,100.00
2023-02-27T04:20:58.247Z,100.00
2023-02-27T04:24:11.844Z,100.00
2023-02-27T04:27:05.650Z,100.00
2023-02-27T04:30:02.087Z,100.00
2023-02-27T04:33:24.746Z,100.00
2023-02-27T04:36:18.655Z,100.00
2023-02-27T04:39:10.340Z,100.00
2023-02-27T04:42:16.268Z,100.00
2023-02-27T04:44:52.071Z,100.00
2023-02-27T04:47:33.411Z,100.00
2023-02-27T04:50:46.609Z,100.00
2023-02-27T04:53:44.214Z,100.00
2023-02-27T04:56:28.723Z,100.00
2023-02-27T04:59:22.478Z,100.00
2023-02-27T05:02:13.393Z,100.00
2023-02-27T05:04:49.001Z,100.00
2023-02-27T05:07:32.841Z,100.00
2023-02-27T05:10:37.176Z,100.00
2023-02-27T05:13:26.279Z,100.00
2023-02-27T05:16:09.412Z,100.00
2023-02-27T05:18:39.710Z,100.00
2023-02-27T05:21:56.356Z,100.00
2023-02-27T05:25:15.998Z,100.00
2023-02-27T05:28:02.070Z,100.00
2023-02-27T05:30:53.577Z,100.00
2023-02-27T05:33:57.095Z,100.00
2023-02-27T05:37:18.569Z,100.00
2023-02-27T05:39:53.395Z,100.00
2023-02-27T05:43:15.264Z,100.00
2023-02-27T05:45:52.843Z,100.00
2023-02-27T05:48:38.559Z,100.00
2023-02-27T05:51:15.406Z,100.00
2023-02-27T05:54:01.541Z,100.00
2023-02-27T05:56:37.363Z,100.00
2023-02-27T05:59:23.832Z,100.00
2023-02-27T06:01:54.432Z,100.00
2023-02-27T06:04:24.713Z,100.00
2023-02-27T06:06:55.144Z,100.00
2023-02-27T06:09:25.161Z,100.00
2023-02-27T06:11:55.197Z,100.00
2023-02-27T06:14:25.566Z,100.00
2023-02-27T06:16:55.656Z,100.00
2023-02-27T06:19:25.945Z,100.00
2023-02-27T06:21:55.980Z,100.00
2023-02-27T06:24:26.796Z,100.00
2023-02-27T06:26:56.883Z,100.00
2023-02-27T06:29:26.924Z,100.00
2023-02-27T06:31:57.046Z,100.00
2023-02-27T06:34:27.274Z,100.00
2023-02-27T06:36:57.441Z,100.00
2023-02-27T06:39:28.690Z,100.00
2023-02-27T06:41:58.764Z,100.00
2023-02-27T06:44:29.519Z,100.00
2023-02-27T06:46:59.526Z,100.00
2023-02-27T06:49:29.577Z,100.00
2023-02-27T06:51:59.604Z,100.00
2023-02-27T06:54:29.637Z,100.00
2023-02-27T06:57:00.418Z,100.00
2023-02-27T06:59:30.413Z,100.00
2023-02-27T07:02:00.695Z,100.00
2023-02-27T07:04:30.737Z,100.00
2023-02-27T07:07:34.673Z,100.00
2023-02-27T07:09:50.736Z,100.00
2023-02-27T07:12:21.061Z,100.00
2023-02-27T07:14:51.146Z,100.00
2023-02-27T07:17:22.521Z,100.00
2023-02-27T07:19:52.576Z,100.00
2023-02-27T07:22:21.185Z,100.00
2023-02-27T07:24:49.589Z,100.00
2023-02-27T07:27:18.077Z,100.00
2023-02-27T07:29:46.681Z,100.00
2023-02-27T07:32:15.604Z,100.00
2023-02-27T07:34:45.754Z,100.00
2023-02-27T07:37:15.840Z,100.00
2023-02-27T07:39:45.914Z,100.00
2023-02-27T07:42:19.598Z,100.00
2023-02-27T07:44:49.611Z,100.00
2023-02-27T07:47:19.642Z,100.00
2023-02-27T07:49:49.664Z,100.00
2023-02-27T07:52:19.679Z,100.00
2023-02-27T07:54:49.750Z,100.00
2023-02-27T07:57:19.881Z,100.00
2023-02-27T07:59:49.930Z,100.00
2023-02-27T08:02:20.008Z,100.00
2023-02-27T08:04:50.165Z,100.00
2023-02-27T08:07:20.202Z,100.00
2023-02-27T08:09:50.276Z,100.00
2023-02-27T08:12:20.665Z,100.00
2023-02-27T08:14:50.678Z,100.00
2023-02-27T08:17:20.705Z,100.00
2023-02-27T08:19:50.730Z,100.00
2023-02-27T08:22:20.836Z,100.00
2023-02-27T08:24:51.057Z,100.00
2023-02-27T08:27:21.112Z,100.00
2023-02-27T08:29:51.134Z,100.00
2023-02-27T08:32:24.192Z,100.00
2023-02-27T08:34:54.650Z,100.00
2023-02-27T08:37:24.845Z,100.00
2023-02-27T08:39:54.873Z,100.00
2023-02-27T08:42:24.942Z,100.00
2023-02-27T08:44:54.670Z,100.00
2023-02-27T08:47:23.365Z,100.00
2023-02-27T08:49:51.568Z,100.00
2023-02-27T08:52:19.926Z,100.00
2023-02-27T08:54:48.489Z,100.00
2023-02-27T08:57:16.760Z,100.00
2023-02-27T08:59:45.215Z,100.00
2023-02-27T09:02:16.434Z,100.00
2023-02-27T09:04:46.505Z,100.00
2023-02-27T09:07:16.570Z,100.00
2023-02-27T09:09:48.050Z,100.00
2023-02-27T09:12:20.032Z,100.00
2023-02-27T09:14:50.052Z,100.00
2023-02-27T09:17:20.108Z,100.00
2023-02-27T09:19:51.385Z,100.00
2023-02-27T09:22:21.501Z,100.00
2023-02-27T09:24:51.502Z,100.00
2023-02-27T09:27:21.740Z,100.00
2023-02-27T09:29:56.408Z,100.00
2023-02-27T09:32:28.239Z,100.00
2023-02-27T09:34:58.905Z,100.00
2023-02-27T09:37:28.978Z,100.00
2023-02-27T09:39:59.026Z,100.00
2023-02-27T09:42:45.524Z,100.00
2023-02-27T09:45:28.271Z,100.00
2023-02-27T09:48:31.862Z,100.00
2023-02-27T09:51:03.668Z,100.00
2023-02-27T09:53:49.785Z,100.00
2023-02-27T09:56:56.928Z,100.00
2023-02-27T10:00:45.800Z,100.00
2023-02-27T10:04:06.147Z,100.00
2023-02-27T10:06:48.507Z,100.00
2023-02-27T10:09:38.060Z,100.00
2023-02-27T10:12:55.047Z,100.00
2023-02-27T10:15:38.092Z,100.00
2023-02-27T10:18:54.930Z,100.00
2023-02-27T10:21:45.537Z,99.00
2023-02-27T10:24:37.014Z,90.73
2023-02-27T10:27:19.841Z,91.41
2023-02-27T10:29:53.278Z,89.17
2023-02-27T10:32:33.332Z,91.99
2023-02-27T10:35:33.955Z,87.51
2023-02-27T10:38:15.042Z,89.17
2023-02-27T10:40:48.147Z,84.42
2023-02-27T10:43:19.321Z,79.48
2023-02-27T10:45:49.693Z,76.65
2023-02-27T10:48:22.639Z,80.66
2023-02-27T10:50:52.814Z,79.30
2023-02-27T10:53:28.537Z,78.56
2023-02-27T10:56:22.708Z,76.92
2023-02-27T10:59:17.567Z,76.60
2023-02-27T11:02:01.130Z,73.04
2023-02-27T11:04:39.132Z,70.47
2023-02-27T11:07:21.249Z,71.56
2023-02-27T11:10:03.230Z,67.66
2023-02-27T11:12:35.704Z,66.67
2023-02-27T11:15:17.521Z,64.51
2023-02-27T11:17:47.743Z,65.44
2023-02-27T11:20:43.430Z,65.00
2023-02-27T11:23:25.652Z,63.48
2023-02-27T11:26:19.064Z,65.54
2023-02-27T11:29:19.038Z,57.40
2023-02-27T11:31:48.964Z,58.95
2023-02-27T11:34:26.412Z,62.10
2023-02-27T11:37:18.326Z,63.69
2023-02-27T11:40:10.802Z,64.67
2023-02-27T11:42:55.086Z,65.46
2023-02-27T11:46:18.069Z,63.60
2023-02-27T11:48:46.413Z,64.19
2023-02-27T11:52:06.300Z,64.55
2023-02-27T11:55:01.711Z,64.92
2023-02-27T11:57:40.407Z,65.46
2023-02-27T12:00:31.139Z,66.30
2023-02-27T12:03:48.623Z,65.37
2023-02-27T12:06:40.339Z,65.09
2023-02-27T12:09:44.414Z,69.50
2023-02-27T12:12:37.442Z,65.86
2023-02-27T12:15:24.857Z,64.63
2023-02-27T12:18:20.132Z,68.50
2023-02-27T12:21:10.288Z,66.61
2023-02-27T12:24:34.751Z,61.38
2023-02-27T12:27:43.784Z,61.17
2023-02-27T12:30:23.181Z,65.43
2023-02-27T12:33:14.844Z,63.21
2023-02-27T12:36:02.898Z,63.18
2023-02-27T12:38:33.186Z,62.53
2023-02-27T12:41:42.372Z,58.87
2023-02-27T12:44:24.444Z,58.05
2023-02-27T12:47:20.820Z,57.93
2023-02-27T12:50:18.289Z,57.78
2023-02-27T12:53:27.106Z,56.01
2023-02-27T12:56:19.646Z,56.22
2023-02-27T12:59:53.764Z,54.56
2023-02-27T13:03:01.886Z,56.06
2023-02-27T13:05:52.878Z,53.95
2023-02-27T13:09:02.482Z,55.33
2023-02-27T13:12:13.279Z,54.53
2023-02-27T13:15:06.328Z,55.39
2023-02-27T13:17:54.646Z,55.73
2023-02-27T13:20:22.556Z,57.76
2023-02-27T13:23:25.101Z,57.03
2023-02-27T13:26:01.307Z,57.40
2023-02-27T13:28:32.445Z,55.32
2023-02-27T13:31:34.346Z,57.10
2023-02-27T13:34:46.854Z,59.86
2023-02-27T13:37:17.057Z,59.31
2023-02-27T13:39:47.142Z,57.44
2023-02-27T13:42:26.336Z,59.95
2023-02-27T13:45:54.303Z,54.70
2023-02-27T13:48:42.596Z,51.80
2023-02-27T13:51:47.839Z,50.73
2023-02-27T13:54:36.388Z,54.07
2023-02-27T13:57:21.493Z,50.29
2023-02-27T14:00:09.436Z,50.47
2023-02-27T14:02:59.244Z,50.90
2023-02-27T14:05:46.357Z,51.09
2023-02-27T14:08:31.644Z,49.36
2023-02-27T14:11:34.412Z,52.67
2023-02-27T14:14:30.123Z,52.67
2023-02-27T14:17:03.726Z,53.09
2023-02-27T14:19:47.955Z,53.71
2023-02-27T14:22:18.397Z,53.88
2023-02-27T14:25:06.482Z,52.86
2023-02-27T14:27:43.804Z,55.18
2023-02-27T14:30:40.877Z,56.77
2023-02-27T14:33:55.903Z,57.71
2023-02-27T14:36:34.727Z,55.38
2023-02-27T14:39:05.072Z,57.51
2023-02-27T14:42:26.179Z,59.24
2023-02-27T14:44:56.690Z,60.01
2023-02-27T14:47:36.873Z,60.75
2023-02-27T14:50:38.856Z,60.42
2023-02-27T14:53:27.120Z,59.75
2023-02-27T14:56:00.497Z,62.08
2023-02-27T14:58:30.532Z,61.80
2023-02-27T15:01:10.023Z,59.67
2023-02-27T15:03:49.840Z,59.34
2023-02-27T15:06:45.518Z,60.78
2023-02-27T15:09:43.046Z,60.81
2023-02-27T15:12:22.887Z,61.75
2023-02-27T15:15:03.247Z,61.49
2023-02-27T15:17:48.606Z,61.74
2023-02-27T15:20:35.834Z,60.25
2023-02-27T15:23:29.124Z,62.10
2023-02-27T15:26:00.800Z,61.85
2023-02-27T15:28:39.393Z,62.56
2023-02-27T15:31:20.724Z,62.45
2023-02-27T15:33:52.148Z,63.15
2023-02-27T15:37:02.618Z,62.71
2023-02-27T15:39:35.590Z,63.61
2023-02-27T15:42:10.692Z,61.77
2023-02-27T15:44:47.032Z,62.36
2023-02-27T15:47:31.308Z,63.38
2023-02-27T15:50:28.358Z,63.25
2023-02-27T15:53:21.708Z,64.75
2023-02-27T15:56:02.174Z,62.60
2023-02-27T15:58:43.105Z,63.49
2023-02-27T16:01:23.008Z,63.94
2023-02-27T16:03:58.065Z,64.79
2023-02-27T16:06:40.731Z,63.79
2023-02-27T16:09:38.428Z,63.50
2023-02-27T16:12:36.912Z,63.93
2023-02-27T16:15:32.707Z,66.73
2023-02-27T16:18:07.916Z,70.00
2023-02-27T16:20:54.883Z,66.44
2023-02-27T16:23:32.049Z,67.40
2023-02-27T16:26:33.008Z,67.81
2023-02-27T16:29:22.453Z,68.58
2023-02-27T16:31:57.032Z,70.05
2023-02-27T16:34:47.804Z,70.39
2023-02-27T16:37:36.952Z,72.51
2023-02-27T16:40:22.616Z,76.09
2023-02-27T16:42:53.800Z,75.88
2023-02-27T16:45:31.191Z,76.82
2023-02-27T16:48:02.150Z,77.66
2023-02-27T16:50:50.541Z,82.49
2023-02-27T16:53:20.841Z,79.97
2023-02-27T16:55:49.661Z,80.76
2023-02-27T16:58:18.925Z,81.63
2023-02-27T17:00:49.153Z,82.73
2023-02-27T17:03:17.340Z,83.84
2023-02-27T17:05:45.730Z,85.82
2023-02-27T17:08:14.202Z,87.17
2023-02-27T17:10:42.703Z,88.33
2023-02-27T17:13:11.164Z,90.72
2023-02-27T17:15:39.578Z,90.71
2023-02-27T17:18:09.423Z,91.64
2023-02-27T17:20:39.816Z,91.19
2023-02-27T17:23:14.340Z,89.96
2023-02-27T17:25:45.585Z,89.93
2023-02-27T17:28:15.723Z,91.09
2023-02-27T17:30:44.323Z,92.29
2023-02-27T17:33:12.639Z,93.35
2023-02-27T17:35:41.382Z,93.12
2023-02-27T17:38:09.880Z,92.85
2023-02-27T17:40:39.443Z,95.23
2023-02-27T17:43:06.994Z,95.93
2023-02-27T17:45:35.542Z,96.20
2023-02-27T17:48:04.046Z,97.09
2023-02-27T17:50:32.485Z,98.15
2023-02-27T17:53:00.973Z,94.27
2023-02-27T17:55:29.541Z,93.37
2023-02-27T17:57:58.074Z,95.74
2023-02-27T18:00:26.651Z,94.21
2023-02-27T18:02:55.004Z,95.98
2023-02-27T18:05:24.275Z,96.39
2023-02-27T18:07:51.355Z,91.82
2023-02-27T18:10:20.447Z,95.96
2023-02-27T18:12:48.702Z,97.12
2023-02-27T18:15:18.237Z,97.64
2023-02-27T18:17:45.925Z,99.30
2023-02-27T18:20:14.468Z,99.96
2023-02-27T18:22:42.937Z,100.00
2023-02-27T18:25:11.535Z,100.00
2023-02-27T18:27:39.962Z,100.00
2023-02-27T18:30:10.302Z,100.00
2023-02-27T18:32:38.563Z,100.00
2023-02-27T18:35:07.520Z,100.00
2023-02-27T18:37:35.623Z,100.00
2023-02-27T18:40:06.087Z,100.00
2023-02-27T18:42:36.153Z,100.00
2023-02-27T18:45:06.977Z,100.00
2023-02-27T18:47:36.804Z,100.00
2023-02-27T18:50:07.248Z,100.00
2023-02-27T18:52:37.686Z,100.00
2023-02-27T18:55:08.269Z,100.00
2023-02-27T18:57:37.751Z,100.00
2023-02-27T19:00:09.524Z,100.00
2023-02-27T19:02:41.745Z,100.00
2023-02-27T19:05:14.619Z,98.62
2023-02-27T19:07:42.545Z,99.90
2023-02-27T19:10:13.023Z,100.00
2023-02-27T19:12:43.295Z,100.00
2023-02-27T19:15:13.135Z,100.00
2023-02-27T19:17:43.127Z,100.00
2023-02-27T19:20:16.570Z,100.00
2023-02-27T19:22:45.954Z,100.00
2023-02-27T19:25:16.121Z,100.00
2023-02-27T19:27:46.911Z,100.00
2023-02-27T19:30:15.528Z,100.00
2023-02-27T19:32:42.975Z,100.00
2023-02-27T19:35:14.282Z,100.00
2023-02-27T19:37:42.931Z,100.00
2023-02-27T19:40:12.635Z,100.00
2023-02-27T19:42:44.691Z,100.00
2023-02-27T19:45:14.183Z,100.00
2023-02-27T19:47:45.102Z,100.00
2023-02-27T19:50:16.305Z,100.00
2023-02-27T19:52:45.681Z,100.00
2023-02-27T19:55:16.091Z,100.00
2023-02-27T19:57:45.943Z,100.00
2023-02-27T20:00:17.589Z,100.00
2023-02-27T20:02:46.723Z,100.00
2023-02-27T20:05:16.870Z,100.00
2023-02-27T20:07:48.415Z,100.00
2023-02-27T20:10:18.537Z,100.00
2023-02-27T20:12:48.552Z,100.00
2023-02-27T20:15:18.373Z,100.00
2023-02-27T20:17:48.347Z,100.00
2023-02-27T20:20:18.953Z,100.00
2023-02-27T20:22:49.304Z,100.00
2023-02-27T20:25:19.555Z,100.00
2023-02-27T20:27:49.674Z,100.00
2023-02-27T20:30:19.866Z,100.00
2023-02-27T20:32:50.136Z,100.00
2023-02-27T20:35:20.318Z,100.00
2023-02-27T20:37:50.355Z,100.00
2023-02-27T20:40:20.699Z,100.00
2023-02-27T20:42:50.682Z,100.00
2023-02-27T20:45:20.696Z,100.00
2023-02-27T20:47:51.484Z,100.00
2023-02-27T20:50:21.762Z,100.00
2023-02-27T20:52:55.187Z,100.00
2023-02-27T20:55:25.020Z,100.00
2023-02-27T20:57:55.077Z,100.00
2023-02-27T21:00:26.918Z,100.00
2023-02-27T21:02:56.261Z,100.00
2023-02-27T21:05:26.317Z,100.00
2023-02-27T21:07:56.485Z,100.00
2023-02-27T21:10:26.596Z,100.00
2023-02-27T21:12:56.704Z,100.00
2023-02-27T21:15:26.792Z,100.00
2023-02-27T21:17:56.954Z,100.00
2023-02-27T21:20:27.009Z,100.00
2023-02-27T21:22:55.911Z,100.00
2023-02-27T21:25:26.249Z,100.00
2023-02-27T21:28:02.427Z,100.00
2023-02-27T21:30:33.326Z,100.00
2023-02-27T21:33:05.067Z,100.00
2023-02-27T21:35:35.206Z,100.00
2023-02-27T21:38:05.429Z,100.00
2023-02-27T21:40:35.562Z,100.00
2023-02-27T21:43:04.190Z,100.00
2023-02-27T21:45:32.396Z,100.00
2023-02-27T21:48:00.867Z,100.00
2023-02-27T21:50:29.728Z,100.00
2023-02-27T21:52:57.634Z,100.00
2023-02-27T21:55:26.069Z,100.00
2023-02-27T21:57:54.768Z,100.00
2023-02-27T22:00:26.560Z,100.00
2023-02-27T22:02:56.575Z,100.00
2023-02-27T22:05:27.085Z,100.00
2023-02-27T22:07:57.285Z,100.00
2023-02-27T22:10:27.370Z,100.00
2023-02-27T22:12:57.661Z,100.00
2023-02-27T22:15:27.756Z,100.00
2023-02-27T22:17:57.735Z,100.00
2023-02-27T22:20:27.897Z,100.00
2023-02-27T22:22:58.901Z,100.00
2023-02-27T22:25:28.927Z,100.00
2023-02-27T22:27:59.898Z,100.00
2023-02-27T22:30:30.638Z,100.00
2023-02-27T22:33:00.703Z,100.00
2023-02-27T22:35:33.809Z,100.00
2023-02-27T22:38:03.903Z,100.00
2023-02-27T22:40:36.190Z,100.00
2023-02-27T22:43:06.564Z,100.00
2023-02-27T22:45:34.691Z,100.00
2023-02-27T22:48:03.084Z,100.00
2023-02-27T22:50:31.487Z,100.00
2023-02-27T22:52:59.974Z,100.00
2023-02-27T22:55:28.327Z,100.00
2023-02-27T22:57:58.258Z,100.00
2023-02-27T23:00:28.198Z,100.00
2023-02-27T23:02:56.612Z,100.00
2023-02-27T23:05:25.012Z,100.00
2023-02-27T23:07:53.457Z,100.00
2023-02-27T23:10:21.893Z,100.00
2023-02-27T23:12:50.214Z,100.00
2023-02-27T23:15:18.743Z,100.00
2023-02-27T23:17:57.920Z,100.00
2023-02-27T23:20:28.338Z,100.00
2023-02-27T23:22:58.363Z,100.00
2023-02-27T23:25:28.375Z,100.00
2023-02-27T23:27:58.570Z,100.00
2023-02-27T23:30:30.420Z,100.00
2023-02-27T23:33:01.533Z,100.00
2023-02-27T23:35:31.608Z,100.00
2023-02-27T23:38:01.769Z,100.00
2023-02-27T23:40:31.815Z,100.00
2023-02-27T23:43:20.508Z,100.00
2023-02-27T23:45:50.575Z,100.00
2023-02-27T23:48:21.975Z,100.00
2023-02-27T23:50:52.061Z,100.00
2023-02-27T23:53:22.124Z,100.00
2023-02-27T23:55:52.151Z,100.00
2023-02-27T23:58:22.402Z,100.00
